sensor_id;sensor_type;location;lat;lon;timestamp;temperature;humidity
20670;DHT22;10494;50.868;4.180;2022-10-30T00:01:21;16.00;99.90
20670;DHT22;10494;50.868;4.180;2022-10-30T00:03:46;16.10;99.90
20670;DHT22;10494;50.868;4.180;2022-10-30T00:06:12;16.10;99.90
20670;DHT22;10494;50.868;4.180;2022-10-30T00:08:37;16.20;99.90
20670;DHT22;10494;50.868;4.180;2022-10-30T00:11:11;16.10;99.90
20670;DHT22;10494;50.868;4.180;2022-10-30T00:13:37;16.20;99.90
20670;DHT22;10494;50.868;4.180;2022-10-30T00:16:07;16.10;99.90
20670;DHT22;10494;50.868;4.180;2022-10-30T00:18:37;16.00;99.90
20670;DHT22;10494;50.868;4.180;2022-10-30T00:21:11;16.00;99.90
20670;DHT22;10494;50.868;4.180;2022-10-30T00:23:38;15.90;99.90
20670;DHT22;10494;50.868;4.180;2022-10-30T00:26:05;15.60;99.90
20670;DHT22;10494;50.868;4.180;2022-10-30T00:28:31;15.60;99.90
20670;DHT22;10494;50.868;4.180;2022-10-30T00:31:01;15.50;99.90
20670;DHT22;10494;50.868;4.180;2022-10-30T00:33:26;15.40;99.90
20670;DHT22;10494;50.868;4.180;2022-10-30T00:35:52;15.40;99.90
20670;DHT22;10494;50.868;4.180;2022-10-30T00:38:18;15.40;99.90
20670;DHT22;10494;50.868;4.180;2022-10-30T00:40:43;15.40;99.90
20670;DHT22;10494;50.868;4.180;2022-10-30T00:43:37;15.40;99.90
20670;DHT22;10494;50.868;4.180;2022-10-30T00:48:43;15.30;99.90
20670;DHT22;10494;50.868;4.180;2022-10-30T00:51:10;15.30;99.90
20670;DHT22;10494;50.868;4.180;2022-10-30T00:53:37;15.30;99.90
20670;DHT22;10494;50.868;4.180;2022-10-30T00:56:05;15.20;99.90
20670;DHT22;10494;50.868;4.180;2022-10-30T00:58:38;15.20;99.90
20670;DHT22;10494;50.868;4.180;2022-10-30T01:01:08;15.20;99.90
20670;DHT22;10494;50.868;4.180;2022-10-30T01:03:36;15.20;99.90
20670;DHT22;10494;50.868;4.180;2022-10-30T01:06:05;15.10;99.90
20670;DHT22;10494;50.868;4.180;2022-10-30T01:08:32;15.00;99.90
20670;DHT22;10494;50.868;4.180;2022-10-30T01:10:59;15.00;99.90
20670;DHT22;10494;50.868;4.180;2022-10-30T01:13:26;15.00;99.90
20670;DHT22;10494;50.868;4.180;2022-10-30T01:16:18;15.10;99.90
20670;DHT22;10494;50.868;4.180;2022-10-30T01:19:10;15.10;99.90
20670;DHT22;10494;50.868;4.180;2022-10-30T01:40:50;14.90;99.90
20670;DHT22;10494;50.868;4.180;2022-10-30T01:43:16;14.80;99.90
20670;DHT22;10494;50.868;4.180;2022-10-30T01:46:09;14.80;99.90
20670;DHT22;10494;50.868;4.180;2022-10-30T02:02:04;14.60;99.90
20670;DHT22;10494;50.868;4.180;2022-10-30T02:04:30;14.60;99.90
20670;DHT22;10494;50.868;4.180;2022-10-30T02:06:56;14.60;99.90
20670;DHT22;10494;50.868;4.180;2022-10-30T02:09:22;14.60;99.90
20670;DHT22;10494;50.868;4.180;2022-10-30T02:11:48;14.60;99.90
20670;DHT22;10494;50.868;4.180;2022-10-30T02:14:20;14.60;99.90
20670;DHT22;10494;50.868;4.180;2022-10-30T02:16:50;14.60;99.90
20670;DHT22;10494;50.868;4.180;2022-10-30T02:19:16;14.50;99.90
20670;DHT22;10494;50.868;4.180;2022-10-30T02:21:42;14.60;99.90
20670;DHT22;10494;50.868;4.180;2022-10-30T02:24:08;14.50;99.90
20670;DHT22;10494;50.868;4.180;2022-10-30T02:26:33;14.40;99.90
20670;DHT22;10494;50.868;4.180;2022-10-30T02:28:59;14.40;99.90
20670;DHT22;10494;50.868;4.180;2022-10-30T02:31:24;14.40;99.90
20670;DHT22;10494;50.868;4.180;2022-10-30T02:33:50;14.40;99.90
20670;DHT22;10494;50.868;4.180;2022-10-30T02:36:15;14.40;99.90
20670;DHT22;10494;50.868;4.180;2022-10-30T02:38:42;14.40;99.90
20670;DHT22;10494;50.868;4.180;2022-10-30T02:41:08;14.40;99.90
20670;DHT22;10494;50.868;4.180;2022-10-30T02:43:34;14.40;99.90
20670;DHT22;10494;50.868;4.180;2022-10-30T02:46:00;14.30;99.90
20670;DHT22;10494;50.868;4.180;2022-10-30T02:48:25;14.40;99.90
20670;DHT22;10494;50.868;4.180;2022-10-30T02:50:51;14.30;99.90
20670;DHT22;10494;50.868;4.180;2022-10-30T02:53:16;14.30;99.90
20670;DHT22;10494;50.868;4.180;2022-10-30T02:55:42;14.30;99.90
20670;DHT22;10494;50.868;4.180;2022-10-30T02:58:07;14.30;99.90
20670;DHT22;10494;50.868;4.180;2022-10-30T03:00:33;14.30;99.90
20670;DHT22;10494;50.868;4.180;2022-10-30T03:02:58;14.20;99.90
20670;DHT22;10494;50.868;4.180;2022-10-30T03:05:24;14.20;99.90
20670;DHT22;10494;50.868;4.180;2022-10-30T03:07:50;14.10;99.90
20670;DHT22;10494;50.868;4.180;2022-10-30T03:10:17;14.20;99.90
20670;DHT22;10494;50.868;4.180;2022-10-30T03:12:42;14.20;99.90
20670;DHT22;10494;50.868;4.180;2022-10-30T03:15:08;14.10;99.90
20670;DHT22;10494;50.868;4.180;2022-10-30T03:17:34;14.10;99.90
20670;DHT22;10494;50.868;4.180;2022-10-30T03:20:00;14.10;99.90
20670;DHT22;10494;50.868;4.180;2022-10-30T03:22:25;14.10;99.90
20670;DHT22;10494;50.868;4.180;2022-10-30T03:24:51;14.10;99.90
20670;DHT22;10494;50.868;4.180;2022-10-30T03:27:16;14.00;99.90
20670;DHT22;10494;50.868;4.180;2022-10-30T03:29:42;14.00;99.90
20670;DHT22;10494;50.868;4.180;2022-10-30T03:32:08;13.90;99.90
20670;DHT22;10494;50.868;4.180;2022-10-30T03:34:35;13.90;99.90
20670;DHT22;10494;50.868;4.180;2022-10-30T03:37:01;13.80;99.90
20670;DHT22;10494;50.868;4.180;2022-10-30T03:39:26;13.70;99.90
20670;DHT22;10494;50.868;4.180;2022-10-30T03:41:52;13.70;99.90
20670;DHT22;10494;50.868;4.180;2022-10-30T03:44:17;13.80;99.90
20670;DHT22;10494;50.868;4.180;2022-10-30T03:46:43;13.80;99.90
20670;DHT22;10494;50.868;4.180;2022-10-30T03:49:09;13.70;99.90
20670;DHT22;10494;50.868;4.180;2022-10-30T03:51:34;13.80;99.90
20670;DHT22;10494;50.868;4.180;2022-10-30T03:54:00;13.80;99.90
20670;DHT22;10494;50.868;4.180;2022-10-30T03:56:25;13.80;99.90
20670;DHT22;10494;50.868;4.180;2022-10-30T03:58:51;13.70;99.90
20670;DHT22;10494;50.868;4.180;2022-10-30T04:01:16;13.60;99.90
20670;DHT22;10494;50.868;4.180;2022-10-30T04:03:42;13.70;99.90
20670;DHT22;10494;50.868;4.180;2022-10-30T04:06:08;13.70;99.90
20670;DHT22;10494;50.868;4.180;2022-10-30T04:08:33;13.70;99.90
20670;DHT22;10494;50.868;4.180;2022-10-30T04:10:59;13.80;99.90
20670;DHT22;10494;50.868;4.180;2022-10-30T04:13:25;13.80;99.90
20670;DHT22;10494;50.868;4.180;2022-10-30T04:15:50;13.80;99.90
20670;DHT22;10494;50.868;4.180;2022-10-30T04:18:16;13.70;99.90
20670;DHT22;10494;50.868;4.180;2022-10-30T04:20:43;13.70;99.90
20670;DHT22;10494;50.868;4.180;2022-10-30T04:23:15;13.60;99.90
20670;DHT22;10494;50.868;4.180;2022-10-30T04:25:41;13.60;99.90
20670;DHT22;10494;50.868;4.180;2022-10-30T04:28:07;13.70;99.90
20670;DHT22;10494;50.868;4.180;2022-10-30T04:30:33;13.60;99.90
20670;DHT22;10494;50.868;4.180;2022-10-30T04:33:01;13.60;99.90
20670;DHT22;10494;50.868;4.180;2022-10-30T04:35:29;13.60;99.90
20670;DHT22;10494;50.868;4.180;2022-10-30T04:38:00;13.50;99.90
20670;DHT22;10494;50.868;4.180;2022-10-30T04:40:31;13.60;99.90
20670;DHT22;10494;50.868;4.180;2022-10-30T04:42:57;13.60;99.90
20670;DHT22;10494;50.868;4.180;2022-10-30T04:45:23;13.50;99.90
20670;DHT22;10494;50.868;4.180;2022-10-30T04:47:48;13.60;99.90
20670;DHT22;10494;50.868;4.180;2022-10-30T04:50:14;13.60;99.90
20670;DHT22;10494;50.868;4.180;2022-10-30T04:52:41;13.50;99.90
20670;DHT22;10494;50.868;4.180;2022-10-30T04:55:07;13.50;99.90
20670;DHT22;10494;50.868;4.180;2022-10-30T04:57:33;13.50;99.90
20670;DHT22;10494;50.868;4.180;2022-10-30T05:00:04;13.50;99.90
20670;DHT22;10494;50.868;4.180;2022-10-30T05:02:30;13.50;99.90
20670;DHT22;10494;50.868;4.180;2022-10-30T05:04:56;13.50;99.90
20670;DHT22;10494;50.868;4.180;2022-10-30T05:07:21;13.50;99.90
20670;DHT22;10494;50.868;4.180;2022-10-30T05:09:47;13.50;99.90
20670;DHT22;10494;50.868;4.180;2022-10-30T05:12:12;13.50;99.90
20670;DHT22;10494;50.868;4.180;2022-10-30T05:14:38;13.50;99.90
20670;DHT22;10494;50.868;4.180;2022-10-30T05:17:03;13.40;99.90
20670;DHT22;10494;50.868;4.180;2022-10-30T05:19:29;13.30;99.90
20670;DHT22;10494;50.868;4.180;2022-10-30T05:21:54;13.30;99.90
20670;DHT22;10494;50.868;4.180;2022-10-30T05:24:20;13.30;99.90
20670;DHT22;10494;50.868;4.180;2022-10-30T05:26:46;13.20;99.90
20670;DHT22;10494;50.868;4.180;2022-10-30T05:29:12;13.10;99.90
20670;DHT22;10494;50.868;4.180;2022-10-30T05:31:38;12.90;99.90
20670;DHT22;10494;50.868;4.180;2022-10-30T05:34:03;12.90;99.90
20670;DHT22;10494;50.868;4.180;2022-10-30T05:36:29;12.90;99.90
20670;DHT22;10494;50.868;4.180;2022-10-30T05:38:54;12.80;99.90
20670;DHT22;10494;50.868;4.180;2022-10-30T05:41:20;12.80;99.90
20670;DHT22;10494;50.868;4.180;2022-10-30T05:43:46;12.80;99.90
20670;DHT22;10494;50.868;4.180;2022-10-30T05:46:11;12.80;99.90
20670;DHT22;10494;50.868;4.180;2022-10-30T05:48:37;12.80;99.90
20670;DHT22;10494;50.868;4.180;2022-10-30T05:51:02;12.90;99.90
20670;DHT22;10494;50.868;4.180;2022-10-30T05:53:28;12.90;99.90
20670;DHT22;10494;50.868;4.180;2022-10-30T05:55:58;12.80;99.90
20670;DHT22;10494;50.868;4.180;2022-10-30T05:58:24;12.80;99.90
20670;DHT22;10494;50.868;4.180;2022-10-30T06:00:50;12.80;99.90
20670;DHT22;10494;50.868;4.180;2022-10-30T06:03:16;12.90;99.90
20670;DHT22;10494;50.868;4.180;2022-10-30T06:05:44;12.90;99.90
20670;DHT22;10494;50.868;4.180;2022-10-30T06:08:10;12.90;99.90
20670;DHT22;10494;50.868;4.180;2022-10-30T06:10:36;12.80;99.90
20670;DHT22;10494;50.868;4.180;2022-10-30T06:13:03;12.80;99.90
20670;DHT22;10494;50.868;4.180;2022-10-30T06:15:29;12.90;99.90
20670;DHT22;10494;50.868;4.180;2022-10-30T06:17:55;12.80;99.90
20670;DHT22;10494;50.868;4.180;2022-10-30T06:20:23;12.90;99.90
20670;DHT22;10494;50.868;4.180;2022-10-30T06:25:19;12.70;99.90
20670;DHT22;10494;50.868;4.180;2022-10-30T06:27:44;12.60;99.90
20670;DHT22;10494;50.868;4.180;2022-10-30T06:30:10;12.70;99.90
20670;DHT22;10494;50.868;4.180;2022-10-30T06:32:36;12.70;99.90
20670;DHT22;10494;50.868;4.180;2022-10-30T06:35:01;12.70;99.90
20670;DHT22;10494;50.868;4.180;2022-10-30T06:37:27;12.80;99.90
20670;DHT22;10494;50.868;4.180;2022-10-30T06:39:53;12.70;99.90
20670;DHT22;10494;50.868;4.180;2022-10-30T06:42:18;12.80;99.90
20670;DHT22;10494;50.868;4.180;2022-10-30T06:44:44;12.80;99.90
20670;DHT22;10494;50.868;4.180;2022-10-30T06:47:10;12.80;99.90
20670;DHT22;10494;50.868;4.180;2022-10-30T06:49:35;12.80;99.90
20670;DHT22;10494;50.868;4.180;2022-10-30T06:52:01;12.80;99.90
20670;DHT22;10494;50.868;4.180;2022-10-30T06:54:26;12.80;99.90
20670;DHT22;10494;50.868;4.180;2022-10-30T06:56:52;12.80;99.90
20670;DHT22;10494;50.868;4.180;2022-10-30T06:59:17;12.90;99.90
20670;DHT22;10494;50.868;4.180;2022-10-30T07:01:43;13.00;99.90
20670;DHT22;10494;50.868;4.180;2022-10-30T07:04:08;12.80;99.90
20670;DHT22;10494;50.868;4.180;2022-10-30T07:06:34;13.00;99.90
20670;DHT22;10494;50.868;4.180;2022-10-30T07:08:59;13.10;99.90
20670;DHT22;10494;50.868;4.180;2022-10-30T07:11:25;13.30;99.90
20670;DHT22;10494;50.868;4.180;2022-10-30T07:13:51;13.50;99.90
20670;DHT22;10494;50.868;4.180;2022-10-30T07:16:16;13.80;99.90
20670;DHT22;10494;50.868;4.180;2022-10-30T07:18:42;14.10;99.90
20670;DHT22;10494;50.868;4.180;2022-10-30T07:21:07;14.60;99.90
20670;DHT22;10494;50.868;4.180;2022-10-30T07:23:33;15.10;99.90
20670;DHT22;10494;50.868;4.180;2022-10-30T07:25:58;15.30;99.90
20670;DHT22;10494;50.868;4.180;2022-10-30T07:28:24;15.50;99.90
20670;DHT22;10494;50.868;4.180;2022-10-30T07:30:50;15.70;99.90
20670;DHT22;10494;50.868;4.180;2022-10-30T07:33:15;16.00;99.90
20670;DHT22;10494;50.868;4.180;2022-10-30T07:35:41;16.20;99.90
20670;DHT22;10494;50.868;4.180;2022-10-30T07:38:10;16.40;99.90
20670;DHT22;10494;50.868;4.180;2022-10-30T07:40:36;16.50;99.90
20670;DHT22;10494;50.868;4.180;2022-10-30T07:43:03;16.70;99.90
20670;DHT22;10494;50.868;4.180;2022-10-30T07:45:29;16.80;99.90
20670;DHT22;10494;50.868;4.180;2022-10-30T07:47:54;17.00;99.90
20670;DHT22;10494;50.868;4.180;2022-10-30T07:50:20;17.10;99.90
20670;DHT22;10494;50.868;4.180;2022-10-30T07:52:46;16.90;99.90
20670;DHT22;10494;50.868;4.180;2022-10-30T07:55:12;16.80;99.90
20670;DHT22;10494;50.868;4.180;2022-10-30T07:57:41;17.10;99.90
20670;DHT22;10494;50.868;4.180;2022-10-30T08:00:12;17.30;99.90
20670;DHT22;10494;50.868;4.180;2022-10-30T08:02:38;17.60;99.90
20670;DHT22;10494;50.868;4.180;2022-10-30T08:05:05;17.90;99.90
20670;DHT22;10494;50.868;4.180;2022-10-30T08:07:31;18.40;99.90
20670;DHT22;10494;50.868;4.180;2022-10-30T08:09:58;18.60;99.90
20670;DHT22;10494;50.868;4.180;2022-10-30T08:12:24;18.40;99.90
20670;DHT22;10494;50.868;4.180;2022-10-30T08:14:51;18.20;99.90
20670;DHT22;10494;50.868;4.180;2022-10-30T08:17:16;18.00;99.90
20670;DHT22;10494;50.868;4.180;2022-10-30T08:19:42;18.00;99.90
20670;DHT22;10494;50.868;4.180;2022-10-30T08:22:09;18.10;99.90
20670;DHT22;10494;50.868;4.180;2022-10-30T08:24:35;18.20;99.90
20670;DHT22;10494;50.868;4.180;2022-10-30T08:27:01;18.10;99.90
20670;DHT22;10494;50.868;4.180;2022-10-30T08:29:26;18.10;99.90
20670;DHT22;10494;50.868;4.180;2022-10-30T08:31:52;18.00;99.90
20670;DHT22;10494;50.868;4.180;2022-10-30T08:34:17;18.00;99.90
20670;DHT22;10494;50.868;4.180;2022-10-30T08:36:43;18.00;99.90
20670;DHT22;10494;50.868;4.180;2022-10-30T08:39:09;18.00;99.90
20670;DHT22;10494;50.868;4.180;2022-10-30T08:41:34;17.90;99.90
20670;DHT22;10494;50.868;4.180;2022-10-30T08:44:00;18.00;99.90
20670;DHT22;10494;50.868;4.180;2022-10-30T08:46:25;18.30;99.90
20670;DHT22;10494;50.868;4.180;2022-10-30T08:48:51;18.60;99.90
20670;DHT22;10494;50.868;4.180;2022-10-30T08:51:20;18.70;99.90
20670;DHT22;10494;50.868;4.180;2022-10-30T08:53:48;18.90;99.90
20670;DHT22;10494;50.868;4.180;2022-10-30T08:56:14;19.10;99.90
20670;DHT22;10494;50.868;4.180;2022-10-30T08:58:40;19.60;99.90
20670;DHT22;10494;50.868;4.180;2022-10-30T09:01:06;20.50;99.90
20670;DHT22;10494;50.868;4.180;2022-10-30T09:03:31;21.30;99.90
20670;DHT22;10494;50.868;4.180;2022-10-30T09:05:58;21.90;99.90
20670;DHT22;10494;50.868;4.180;2022-10-30T09:08:24;22.50;99.90
20670;DHT22;10494;50.868;4.180;2022-10-30T09:10:54;23.50;99.90
20670;DHT22;10494;50.868;4.180;2022-10-30T09:13:20;24.40;99.90
20670;DHT22;10494;50.868;4.180;2022-10-30T09:15:45;25.20;99.90
20670;DHT22;10494;50.868;4.180;2022-10-30T09:18:11;26.00;99.90
20670;DHT22;10494;50.868;4.180;2022-10-30T09:20:36;26.20;99.90
20670;DHT22;10494;50.868;4.180;2022-10-30T09:23:03;26.30;99.90
20670;DHT22;10494;50.868;4.180;2022-10-30T09:25:28;25.80;99.90
20670;DHT22;10494;50.868;4.180;2022-10-30T09:27:54;25.70;99.90
20670;DHT22;10494;50.868;4.180;2022-10-30T09:30:20;25.50;99.90
20670;DHT22;10494;50.868;4.180;2022-10-30T09:32:52;25.60;99.90
20670;DHT22;10494;50.868;4.180;2022-10-30T09:35:17;25.80;99.90
20670;DHT22;10494;50.868;4.180;2022-10-30T09:37:43;25.70;99.90
20670;DHT22;10494;50.868;4.180;2022-10-30T09:48:55;24.80;99.90
20670;DHT22;10494;50.868;4.180;2022-10-30T09:54:37;24.50;99.90
20670;DHT22;10494;50.868;4.180;2022-10-30T09:57:15;24.10;99.90
20670;DHT22;10494;50.868;4.180;2022-10-30T10:00:06;24.10;99.90
20670;DHT22;10494;50.868;4.180;2022-10-30T10:02:35;24.00;99.90
20670;DHT22;10494;50.868;4.180;2022-10-30T10:06:05;24.60;99.90
20670;DHT22;10494;50.868;4.180;2022-10-30T10:08:03;24.80;99.90
20670;DHT22;10494;50.868;4.180;2022-10-30T10:10:39;24.40;99.90
20670;DHT22;10494;50.868;4.180;2022-10-30T10:13:32;23.90;99.90
20670;DHT22;10494;50.868;4.180;2022-10-30T10:16:06;23.40;99.90
20670;DHT22;10494;50.868;4.180;2022-10-30T10:21:20;23.10;99.90
20670;DHT22;10494;50.868;4.180;2022-10-30T10:23:49;23.30;99.90
20670;DHT22;10494;50.868;4.180;2022-10-30T10:26:41;23.30;99.90
20670;DHT22;10494;50.868;4.180;2022-10-30T10:34:56;22.20;99.90
20670;DHT22;10494;50.868;4.180;2022-10-30T10:38:32;22.10;99.90
20670;DHT22;10494;50.868;4.180;2022-10-30T10:46:23;22.80;99.90
20670;DHT22;10494;50.868;4.180;2022-10-30T10:49:00;22.90;99.90
20670;DHT22;10494;50.868;4.180;2022-10-30T10:51:50;22.70;99.90
20670;DHT22;10494;50.868;4.180;2022-10-30T10:54:18;22.70;99.90
20670;DHT22;10494;50.868;4.180;2022-10-30T10:56:47;22.70;99.90
20670;DHT22;10494;50.868;4.180;2022-10-30T10:59:37;22.70;99.90
20670;DHT22;10494;50.868;4.180;2022-10-30T11:04:38;22.80;99.90
20670;DHT22;10494;50.868;4.180;2022-10-30T11:09:51;22.90;99.90
20670;DHT22;10494;50.868;4.180;2022-10-30T11:12:28;22.90;99.90
20670;DHT22;10494;50.868;4.180;2022-10-30T11:14:57;22.90;99.90
20670;DHT22;10494;50.868;4.180;2022-10-30T11:17:32;22.80;99.90
20670;DHT22;10494;50.868;4.180;2022-10-30T11:20:15;22.80;99.90
20670;DHT22;10494;50.868;4.180;2022-10-30T11:22:48;22.80;99.90
20670;DHT22;10494;50.868;4.180;2022-10-30T11:25:18;22.50;99.90
20670;DHT22;10494;50.868;4.180;2022-10-30T11:27:47;22.50;99.90
20670;DHT22;10494;50.868;4.180;2022-10-30T11:30:21;22.50;99.90
20670;DHT22;10494;50.868;4.180;2022-10-30T11:32:47;22.40;99.90
20670;DHT22;10494;50.868;4.180;2022-10-30T11:35:15;22.40;99.90
20670;DHT22;10494;50.868;4.180;2022-10-30T11:37:47;22.20;99.90
20670;DHT22;10494;50.868;4.180;2022-10-30T11:42:45;22.40;99.90
20670;DHT22;10494;50.868;4.180;2022-10-30T11:45:15;22.30;99.90
20670;DHT22;10494;50.868;4.180;2022-10-30T11:47:42;22.10;99.90
20670;DHT22;10494;50.868;4.180;2022-10-30T11:50:19;22.00;99.90
20670;DHT22;10494;50.868;4.180;2022-10-30T11:52:52;22.00;99.90
20670;DHT22;10494;50.868;4.180;2022-10-30T11:55:34;21.90;99.90
20670;DHT22;10494;50.868;4.180;2022-10-30T11:58:01;21.90;99.90
20670;DHT22;10494;50.868;4.180;2022-10-30T12:00:34;22.10;99.90
20670;DHT22;10494;50.868;4.180;2022-10-30T12:03:00;22.20;99.90
20670;DHT22;10494;50.868;4.180;2022-10-30T12:05:39;22.20;99.90
20670;DHT22;10494;50.868;4.180;2022-10-30T12:10:58;22.10;99.90
20670;DHT22;10494;50.868;4.180;2022-10-30T12:13:25;22.10;99.90
20670;DHT22;10494;50.868;4.180;2022-10-30T12:18:29;21.90;99.90
20670;DHT22;10494;50.868;4.180;2022-10-30T12:20:56;21.80;99.90
20670;DHT22;10494;50.868;4.180;2022-10-30T12:23:24;21.70;99.90
20670;DHT22;10494;50.868;4.180;2022-10-30T12:25:53;21.80;99.90
20670;DHT22;10494;50.868;4.180;2022-10-30T12:28:22;21.90;99.90
20670;DHT22;10494;50.868;4.180;2022-10-30T12:33:21;22.00;99.90
20670;DHT22;10494;50.868;4.180;2022-10-30T12:35:54;22.20;99.90
20670;DHT22;10494;50.868;4.180;2022-10-30T12:38:41;22.30;99.90
20670;DHT22;10494;50.868;4.180;2022-10-30T12:41:26;22.30;99.90
20670;DHT22;10494;50.868;4.180;2022-10-30T12:44:02;22.40;99.90
20670;DHT22;10494;50.868;4.180;2022-10-30T12:46:37;22.40;99.90
20670;DHT22;10494;50.868;4.180;2022-10-30T12:49:21;22.50;99.90
20670;DHT22;10494;50.868;4.180;2022-10-30T12:52:18;22.80;99.90
20670;DHT22;10494;50.868;4.180;2022-10-30T12:55:12;22.60;99.90
20670;DHT22;10494;50.868;4.180;2022-10-30T12:57:45;22.40;99.90
20670;DHT22;10494;50.868;4.180;2022-10-30T13:00:16;22.20;99.90
20670;DHT22;10494;50.868;4.180;2022-10-30T13:05:50;22.10;99.90
20670;DHT22;10494;50.868;4.180;2022-10-30T13:08:36;22.10;99.90
20670;DHT22;10494;50.868;4.180;2022-10-30T13:13:50;22.10;99.90
20670;DHT22;10494;50.868;4.180;2022-10-30T13:16:21;22.10;99.90
20670;DHT22;10494;50.868;4.180;2022-10-30T13:18:53;22.10;99.90
20670;DHT22;10494;50.868;4.180;2022-10-30T13:21:42;22.20;99.90
20670;DHT22;10494;50.868;4.180;2022-10-30T13:27:07;22.20;99.90
20670;DHT22;10494;50.868;4.180;2022-10-30T13:29:55;22.20;99.90
20670;DHT22;10494;50.868;4.180;2022-10-30T13:32:29;22.00;99.90
20670;DHT22;10494;50.868;4.180;2022-10-30T13:38:18;21.90;99.90
20670;DHT22;10494;50.868;4.180;2022-10-30T13:40:50;21.90;99.90
20670;DHT22;10494;50.868;4.180;2022-10-30T13:43:28;21.70;99.90
20670;DHT22;10494;50.868;4.180;2022-10-30T13:49:13;21.90;99.90
20670;DHT22;10494;50.868;4.180;2022-10-30T13:52:29;22.20;99.90
20670;DHT22;10494;50.868;4.180;2022-10-30T13:54:39;22.10;99.90
20670;DHT22;10494;50.868;4.180;2022-10-30T13:57:20;22.20;99.90
20670;DHT22;10494;50.868;4.180;2022-10-30T13:59:53;21.90;99.90
20670;DHT22;10494;50.868;4.180;2022-10-30T14:10:57;21.10;99.90
20670;DHT22;10494;50.868;4.180;2022-10-30T14:13:28;21.00;99.90
20670;DHT22;10494;50.868;4.180;2022-10-30T14:16:02;21.00;99.90
20670;DHT22;10494;50.868;4.180;2022-10-30T14:18:43;21.00;99.90
20670;DHT22;10494;50.868;4.180;2022-10-30T14:21:28;21.10;99.90
20670;DHT22;10494;50.868;4.180;2022-10-30T14:24:02;21.00;99.90
20670;DHT22;10494;50.868;4.180;2022-10-30T14:26:28;21.10;99.90
20670;DHT22;10494;50.868;4.180;2022-10-30T14:28:54;20.90;99.90
20670;DHT22;10494;50.868;4.180;2022-10-30T14:31:33;20.70;99.90
20670;DHT22;10494;50.868;4.180;2022-10-30T14:33:59;20.50;99.90
20670;DHT22;10494;50.868;4.180;2022-10-30T14:36:26;20.40;99.90
20670;DHT22;10494;50.868;4.180;2022-10-30T14:47:38;20.30;99.90
20670;DHT22;10494;50.868;4.180;2022-10-30T14:50:30;20.20;99.90
20670;DHT22;10494;50.868;4.180;2022-10-30T14:53:04;20.10;99.90
20670;DHT22;10494;50.868;4.180;2022-10-30T14:58:25;20.00;99.90
20670;DHT22;10494;50.868;4.180;2022-10-30T15:01:23;20.00;99.90
20670;DHT22;10494;50.868;4.180;2022-10-30T15:04:03;20.10;99.90
20670;DHT22;10494;50.868;4.180;2022-10-30T15:15:36;20.10;99.90
20670;DHT22;10494;50.868;4.180;2022-10-30T15:18:07;20.10;99.90
20670;DHT22;10494;50.868;4.180;2022-10-30T15:20:36;20.00;99.90
20670;DHT22;10494;50.868;4.180;2022-10-30T15:23:21;19.90;99.90
20670;DHT22;10494;50.868;4.180;2022-10-30T15:25:51;20.00;99.90
20670;DHT22;10494;50.868;4.180;2022-10-30T15:28:24;19.90;99.90
20670;DHT22;10494;50.868;4.180;2022-10-30T15:30:58;19.80;99.90
20670;DHT22;10494;50.868;4.180;2022-10-30T15:33:26;19.90;99.90
20670;DHT22;10494;50.868;4.180;2022-10-30T15:35:52;19.60;99.90
20670;DHT22;10494;50.868;4.180;2022-10-30T15:38:17;19.30;99.90
20670;DHT22;10494;50.868;4.180;2022-10-30T15:40:43;19.40;99.90
20670;DHT22;10494;50.868;4.180;2022-10-30T15:43:11;19.40;99.90
20670;DHT22;10494;50.868;4.180;2022-10-30T15:45:43;19.30;99.90
20670;DHT22;10494;50.868;4.180;2022-10-30T15:48:13;19.30;99.90
20670;DHT22;10494;50.868;4.180;2022-10-30T15:50:45;19.40;99.90
20670;DHT22;10494;50.868;4.180;2022-10-30T15:53:18;19.30;99.90
20670;DHT22;10494;50.868;4.180;2022-10-30T15:55:45;19.20;99.90
20670;DHT22;10494;50.868;4.180;2022-10-30T15:58:16;19.20;99.90
20670;DHT22;10494;50.868;4.180;2022-10-30T16:00:54;19.20;99.90
20670;DHT22;10494;50.868;4.180;2022-10-30T16:03:20;19.20;99.90
20670;DHT22;10494;50.868;4.180;2022-10-30T16:05:45;19.10;99.90
20670;DHT22;10494;50.868;4.180;2022-10-30T16:08:14;18.90;99.90
20670;DHT22;10494;50.868;4.180;2022-10-30T16:10:42;18.80;99.90
20670;DHT22;10494;50.868;4.180;2022-10-30T16:13:18;18.70;99.90
20670;DHT22;10494;50.868;4.180;2022-10-30T16:15:45;18.70;99.90
20670;DHT22;10494;50.868;4.180;2022-10-30T16:18:18;18.60;99.90
20670;DHT22;10494;50.868;4.180;2022-10-30T16:20:48;18.60;99.90
20670;DHT22;10494;50.868;4.180;2022-10-30T16:23:16;18.50;99.90
20670;DHT22;10494;50.868;4.180;2022-10-30T16:25:42;18.50;99.90
20670;DHT22;10494;50.868;4.180;2022-10-30T16:28:32;18.50;99.90
20670;DHT22;10494;50.868;4.180;2022-10-30T16:31:00;18.50;99.90
20670;DHT22;10494;50.868;4.180;2022-10-30T16:33:28;18.40;99.90
20670;DHT22;10494;50.868;4.180;2022-10-30T16:35:55;18.30;99.90
20670;DHT22;10494;50.868;4.180;2022-10-30T16:38:22;18.30;99.90
20670;DHT22;10494;50.868;4.180;2022-10-30T16:40:49;18.30;99.90
20670;DHT22;10494;50.868;4.180;2022-10-30T16:43:32;18.20;99.90
20670;DHT22;10494;50.868;4.180;2022-10-30T16:46:34;18.20;99.90
20670;DHT22;10494;50.868;4.180;2022-10-30T16:49:06;18.20;99.90
20670;DHT22;10494;50.868;4.180;2022-10-30T16:51:33;18.20;99.90
20670;DHT22;10494;50.868;4.180;2022-10-30T16:53:59;18.10;99.90
20670;DHT22;10494;50.868;4.180;2022-10-30T16:56:29;18.10;99.90
20670;DHT22;10494;50.868;4.180;2022-10-30T16:59:11;17.60;99.90
20670;DHT22;10494;50.868;4.180;2022-10-30T17:01:38;17.50;99.90
20670;DHT22;10494;50.868;4.180;2022-10-30T17:04:04;17.40;99.90
20670;DHT22;10494;50.868;4.180;2022-10-30T17:06:41;17.40;99.90
20670;DHT22;10494;50.868;4.180;2022-10-30T17:09:21;17.30;99.90
20670;DHT22;10494;50.868;4.180;2022-10-30T17:12:45;17.30;99.90
20670;DHT22;10494;50.868;4.180;2022-10-30T17:17:34;17.10;99.90
20670;DHT22;10494;50.868;4.180;2022-10-30T17:22:36;17.00;99.90
20670;DHT22;10494;50.868;4.180;2022-10-30T17:25:14;17.00;99.90
20670;DHT22;10494;50.868;4.180;2022-10-30T17:27:48;16.90;99.90
20670;DHT22;10494;50.868;4.180;2022-10-30T17:30:36;16.90;99.90
20670;DHT22;10494;50.868;4.180;2022-10-30T17:33:35;16.90;99.90
20670;DHT22;10494;50.868;4.180;2022-10-30T17:36:03;16.90;99.90
20670;DHT22;10494;50.868;4.180;2022-10-30T17:38:29;16.90;99.90
20670;DHT22;10494;50.868;4.180;2022-10-30T17:40:55;16.80;99.90
20670;DHT22;10494;50.868;4.180;2022-10-30T17:43:24;16.80;99.90
20670;DHT22;10494;50.868;4.180;2022-10-30T17:45:50;16.80;99.90
20670;DHT22;10494;50.868;4.180;2022-10-30T17:48:17;16.80;99.90
20670;DHT22;10494;50.868;4.180;2022-10-30T17:50:43;16.70;99.90
20670;DHT22;10494;50.868;4.180;2022-10-30T17:53:17;16.70;99.90
20670;DHT22;10494;50.868;4.180;2022-10-30T17:55:47;16.60;99.90